sensor_id;sensor_type;location;lat;lon;timestamp;pressure;altitude;pressure_sealevel;temperature;humidity
76060;BME280;64759;52.220;5.170;2023-04-23T00:00:47;100727.00;;;8.88;86.89
76060;BME280;64759;52.220;5.170;2023-04-23T00:03:14;100718.16;;;8.81;87.00
76060;BME280;64759;52.220;5.170;2023-04-23T00:05:44;100714.06;;;8.79;87.11
76060;BME280;64759;52.220;5.170;2023-04-23T00:08:09;100720.81;;;8.70;87.28
76060;BME280;64759;52.220;5.170;2023-04-23T00:10:35;100717.44;;;8.70;87.50
76060;BME280;64759;52.220;5.170;2023-04-23T00:13:01;100716.63;;;8.69;87.39
76060;BME280;64759;52.220;5.170;2023-04-23T00:15:27;100723.97;;;8.74;87.27
76060;BME280;64759;52.220;5.170;2023-04-23T00:17:52;100724.91;;;8.73;87.00
76060;BME280;64759;52.220;5.170;2023-04-23T00:20:18;100727.63;;;8.71;87.10
76060;BME280;64759;52.220;5.170;2023-04-23T00:22:43;100716.97;;;8.55;87.56
76060;BME280;64759;52.220;5.170;2023-04-23T00:25:09;100711.13;;;8.53;88.23
76060;BME280;64759;52.220;5.170;2023-04-23T00:27:35;100714.81;;;8.60;87.70
76060;BME280;64759;52.220;5.170;2023-04-23T00:30:02;100707.38;;;8.67;87.42
76060;BME280;64759;52.220;5.170;2023-04-23T00:32:28;100713.06;;;8.70;87.67
76060;BME280;64759;52.220;5.170;2023-04-23T00:34:54;100709.97;;;8.67;87.51
76060;BME280;64759;52.220;5.170;2023-04-23T00:37:21;100704.91;;;8.65;88.21
76060;BME280;64759;52.220;5.170;2023-04-23T00:39:47;100704.22;;;8.63;87.85
76060;BME280;64759;52.220;5.170;2023-04-23T00:42:14;100701.75;;;8.52;88.37
76060;BME280;64759;52.220;5.170;2023-04-23T00:44:41;100699.59;;;8.57;88.37
76060;BME280;64759;52.220;5.170;2023-04-23T00:47:07;100695.38;;;8.56;88.45
76060;BME280;64759;52.220;5.170;2023-04-23T00:49:33;100692.81;;;8.56;88.43
76060;BME280;64759;52.220;5.170;2023-04-23T00:51:59;100686.00;;;8.55;88.70
76060;BME280;64759;52.220;5.170;2023-04-23T00:54:25;100688.47;;;8.66;88.44
76060;BME280;64759;52.220;5.170;2023-04-23T00:56:52;100676.94;;;8.70;88.36
76060;BME280;64759;52.220;5.170;2023-04-23T00:59:19;100674.34;;;8.70;88.18
76060;BME280;64759;52.220;5.170;2023-04-23T01:01:45;100676.00;;;8.71;88.10
76060;BME280;64759;52.220;5.170;2023-04-23T01:04:15;100672.34;;;8.74;88.18
76060;BME280;64759;52.220;5.170;2023-04-23T01:06:41;100668.66;;;8.67;87.73
76060;BME280;64759;52.220;5.170;2023-04-23T01:09:08;100663.50;;;8.67;87.96
76060;BME280;64759;52.220;5.170;2023-04-23T01:11:42;100665.91;;;8.59;88.09
76060;BME280;64759;52.220;5.170;2023-04-23T01:14:08;100666.31;;;8.54;88.37
76060;BME280;64759;52.220;5.170;2023-04-23T01:16:37;100661.44;;;8.61;88.23
76060;BME280;64759;52.220;5.170;2023-04-23T01:19:08;100653.16;;;8.57;88.30
76060;BME280;64759;52.220;5.170;2023-04-23T01:21:35;100653.41;;;8.54;88.46
76060;BME280;64759;52.220;5.170;2023-04-23T01:24:03;100646.63;;;8.63;88.31
76060;BME280;64759;52.220;5.170;2023-04-23T01:26:29;100650.44;;;8.59;88.17
76060;BME280;64759;52.220;5.170;2023-04-23T01:28:55;100652.34;;;8.66;88.11
76060;BME280;64759;52.220;5.170;2023-04-23T01:31:21;100648.53;;;8.70;87.89
76060;BME280;64759;52.220;5.170;2023-04-23T01:33:49;100644.63;;;8.76;87.64
76060;BME280;64759;52.220;5.170;2023-04-23T01:36:16;100642.44;;;8.81;87.38
76060;BME280;64759;52.220;5.170;2023-04-23T01:38:42;100646.13;;;8.78;87.81
76060;BME280;64759;52.220;5.170;2023-04-23T01:41:07;100637.56;;;8.87;87.63
76060;BME280;64759;52.220;5.170;2023-04-23T01:43:33;100637.97;;;8.83;87.57
76060;BME280;64759;52.220;5.170;2023-04-23T01:45:59;100631.72;;;8.76;87.95
76060;BME280;64759;52.220;5.170;2023-04-23T01:48:26;100633.75;;;8.72;87.63
76060;BME280;64759;52.220;5.170;2023-04-23T01:50:52;100631.28;;;8.71;87.84
76060;BME280;64759;52.220;5.170;2023-04-23T01:53:18;100636.72;;;8.77;87.76
76060;BME280;64759;52.220;5.170;2023-04-23T01:55:47;100623.72;;;8.79;88.16
76060;BME280;64759;52.220;5.170;2023-04-23T01:58:14;100632.38;;;8.78;88.10
76060;BME280;64759;52.220;5.170;2023-04-23T02:00:40;100625.31;;;8.80;87.65
76060;BME280;64759;52.220;5.170;2023-04-23T02:03:06;100625.31;;;8.70;88.39
76060;BME280;64759;52.220;5.170;2023-04-23T02:05:33;100621.94;;;8.70;88.26
76060;BME280;64759;52.220;5.170;2023-04-23T02:08:00;100625.22;;;8.81;87.52
76060;BME280;64759;52.220;5.170;2023-04-23T02:10:26;100626.03;;;8.91;87.60
76060;BME280;64759;52.220;5.170;2023-04-23T02:12:51;100615.69;;;8.82;87.47
76060;BME280;64759;52.220;5.170;2023-04-23T02:15:18;100605.38;;;8.72;88.00
76060;BME280;64759;52.220;5.170;2023-04-23T02:17:44;100599.22;;;8.73;87.92
76060;BME280;64759;52.220;5.170;2023-04-23T02:20:10;100610.78;;;8.79;88.08
76060;BME280;64759;52.220;5.170;2023-04-23T02:22:38;100608.22;;;8.69;87.99
76060;BME280;64759;52.220;5.170;2023-04-23T02:25:05;100607.97;;;8.82;87.73
76060;BME280;64759;52.220;5.170;2023-04-23T02:27:32;100603.47;;;8.74;87.63
76060;BME280;64759;52.220;5.170;2023-04-23T02:29:57;100601.81;;;8.73;87.98
76060;BME280;64759;52.220;5.170;2023-04-23T02:32:23;100599.50;;;8.80;88.11
76060;BME280;64759;52.220;5.170;2023-04-23T02:34:48;100598.56;;;8.71;87.84
76060;BME280;64759;52.220;5.170;2023-04-23T02:37:14;100595.81;;;8.63;88.25
76060;BME280;64759;52.220;5.170;2023-04-23T02:39:39;100592.97;;;8.66;88.02
76060;BME280;64759;52.220;5.170;2023-04-23T02:42:07;100594.47;;;8.59;87.85
76060;BME280;64759;52.220;5.170;2023-04-23T02:44:34;100598.56;;;8.71;87.43
76060;BME280;64759;52.220;5.170;2023-04-23T02:47:00;100594.75;;;8.75;87.25
76060;BME280;64759;52.220;5.170;2023-04-23T02:49:25;100596.91;;;8.80;87.38
76060;BME280;64759;52.220;5.170;2023-04-23T02:51:51;100589.31;;;8.78;87.44
76060;BME280;64759;52.220;5.170;2023-04-23T02:54:17;100595.84;;;8.82;87.58
76060;BME280;64759;52.220;5.170;2023-04-23T02:56:43;100587.41;;;8.80;87.12
76060;BME280;64759;52.220;5.170;2023-04-23T02:59:08;100600.47;;;8.88;87.49
76060;BME280;64759;52.220;5.170;2023-04-23T03:01:34;100595.47;;;8.87;87.01
76060;BME280;64759;52.220;5.170;2023-04-23T03:04:01;100596.81;;;9.00;86.97
76060;BME280;64759;52.220;5.170;2023-04-23T03:06:28;100600.22;;;8.91;86.40
76060;BME280;64759;52.220;5.170;2023-04-23T03:08:53;100601.97;;;8.91;86.87
76060;BME280;64759;52.220;5.170;2023-04-23T03:11:20;100599.78;;;8.96;86.38
76060;BME280;64759;52.220;5.170;2023-04-23T03:13:47;100606.88;;;8.94;86.61
76060;BME280;64759;52.220;5.170;2023-04-23T03:16:14;100601.28;;;8.98;86.54
76060;BME280;64759;52.220;5.170;2023-04-23T03:18:39;100588.66;;;8.95;86.00
76060;BME280;64759;52.220;5.170;2023-04-23T03:21:05;100592.19;;;9.04;85.80
76060;BME280;64759;52.220;5.170;2023-04-23T03:23:32;100593.53;;;8.98;86.20
76060;BME280;64759;52.220;5.170;2023-04-23T03:25:58;100596.81;;;9.00;86.22
76060;BME280;64759;52.220;5.170;2023-04-23T03:28:23;100594.91;;;9.02;86.10
76060;BME280;64759;52.220;5.170;2023-04-23T03:30:49;100596.78;;;9.10;86.02
76060;BME280;64759;52.220;5.170;2023-04-23T03:33:15;100593.69;;;9.06;85.95
76060;BME280;64759;52.220;5.170;2023-04-23T03:35:40;100595.19;;;9.09;85.99
76060;BME280;64759;52.220;5.170;2023-04-23T03:38:10;100596.28;;;9.06;86.22
76060;BME280;64759;52.220;5.170;2023-04-23T03:40:36;100590.38;;;9.14;86.01
76060;BME280;64759;52.220;5.170;2023-04-23T03:43:03;100589.59;;;9.13;85.98
76060;BME280;64759;52.220;5.170;2023-04-23T03:45:47;100582.63;;;9.14;86.00
76060;BME280;64759;52.220;5.170;2023-04-23T03:48:12;100584.97;;;9.07;85.53
76060;BME280;64759;52.220;5.170;2023-04-23T03:50:39;100581.03;;;9.13;85.85
76060;BME280;64759;52.220;5.170;2023-04-23T03:53:20;100589.03;;;9.10;85.71
76060;BME280;64759;52.220;5.170;2023-04-23T03:56:06;100580.63;;;9.08;85.70
76060;BME280;64759;52.220;5.170;2023-04-23T03:58:37;100581.16;;;9.02;86.39
76060;BME280;64759;52.220;5.170;2023-04-23T04:01:08;100575.06;;;8.93;86.35
76060;BME280;64759;52.220;5.170;2023-04-23T04:03:34;100569.91;;;8.93;86.64
76060;BME280;64759;52.220;5.170;2023-04-23T04:05:59;100578.31;;;8.86;86.85
76060;BME280;64759;52.220;5.170;2023-04-23T04:08:25;100575.47;;;8.89;86.55
76060;BME280;64759;52.220;5.170;2023-04-23T04:10:52;100573.56;;;8.91;86.92
76060;BME280;64759;52.220;5.170;2023-04-23T04:13:19;100570.84;;;8.83;87.24
76060;BME280;64759;52.220;5.170;2023-04-23T04:15:44;100568.66;;;8.88;86.79
76060;BME280;64759;52.220;5.170;2023-04-23T04:18:10;100571.41;;;8.77;87.53
76060;BME280;64759;52.220;5.170;2023-04-23T04:20:35;100576.00;;;8.83;87.24
76060;BME280;64759;52.220;5.170;2023-04-23T04:23:00;100574.81;;;8.87;87.11
76060;BME280;64759;52.220;5.170;2023-04-23T04:25:26;100575.31;;;8.90;86.96
76060;BME280;64759;52.220;5.170;2023-04-23T04:27:53;100575.72;;;8.95;86.93
76060;BME280;64759;52.220;5.170;2023-04-23T04:30:18;100577.91;;;9.00;87.04
76060;BME280;64759;52.220;5.170;2023-04-23T04:32:44;100574.91;;;9.04;86.86
76060;BME280;64759;52.220;5.170;2023-04-23T04:35:10;100570.56;;;9.05;86.63
76060;BME280;64759;52.220;5.170;2023-04-23T04:37:38;100573.28;;;9.03;86.97
76060;BME280;64759;52.220;5.170;2023-04-23T04:40:05;100576.41;;;8.88;86.82
76060;BME280;64759;52.220;5.170;2023-04-23T04:42:32;100577.63;;;9.03;86.83
76060;BME280;64759;52.220;5.170;2023-04-23T04:44:57;100572.19;;;9.06;86.99
76060;BME280;64759;52.220;5.170;2023-04-23T04:47:24;100572.19;;;9.15;86.73
76060;BME280;64759;52.220;5.170;2023-04-23T04:49:50;100579.28;;;9.13;86.29
76060;BME280;64759;52.220;5.170;2023-04-23T04:52:16;100585.78;;;9.17;86.15
76060;BME280;64759;52.220;5.170;2023-04-23T04:54:41;100584.28;;;9.25;86.59
76060;BME280;64759;52.220;5.170;2023-04-23T04:57:07;100579.53;;;9.20;86.18
76060;BME280;64759;52.220;5.170;2023-04-23T04:59:32;100578.03;;;9.17;86.19
76060;BME280;64759;52.220;5.170;2023-04-23T05:01:58;100585.94;;;9.16;86.75
76060;BME280;64759;52.220;5.170;2023-04-23T05:04:23;100587.00;;;9.23;85.88
76060;BME280;64759;52.220;5.170;2023-04-23T05:06:49;100578.88;;;9.08;86.42
76060;BME280;64759;52.220;5.170;2023-04-23T05:09:14;100576.56;;;9.05;86.20
76060;BME280;64759;52.220;5.170;2023-04-23T05:11:41;100574.22;;;9.02;87.08
76060;BME280;64759;52.220;5.170;2023-04-23T05:14:07;100571.94;;;9.09;86.87
76060;BME280;64759;52.220;5.170;2023-04-23T05:16:33;100579.53;;;9.01;86.80
76060;BME280;64759;52.220;5.170;2023-04-23T05:18:58;100570.44;;;9.16;86.64
76060;BME280;64759;52.220;5.170;2023-04-23T05:21:24;100578.88;;;9.08;86.62
76060;BME280;64759;52.220;5.170;2023-04-23T05:23:52;100564.28;;;9.17;86.53
76060;BME280;64759;52.220;5.170;2023-04-23T05:26:18;100568.09;;;9.23;86.46
76060;BME280;64759;52.220;5.170;2023-04-23T05:28:45;100565.50;;;9.23;86.35
76060;BME280;64759;52.220;5.170;2023-04-23T05:31:11;100566.44;;;9.41;86.59
76060;BME280;64759;52.220;5.170;2023-04-23T05:33:37;100572.44;;;9.32;85.76
76060;BME280;64759;52.220;5.170;2023-04-23T05:36:03;100577.03;;;9.47;85.90
76060;BME280;64759;52.220;5.170;2023-04-23T05:38:28;100586.81;;;9.44;85.91
76060;BME280;64759;52.220;5.170;2023-04-23T05:40:55;100593.44;;;9.56;85.16
76060;BME280;64759;52.220;5.170;2023-04-23T05:43:21;100595.91;;;9.57;85.56
76060;BME280;64759;52.220;5.170;2023-04-23T05:45:46;100597.69;;;9.57;85.58
76060;BME280;64759;52.220;5.170;2023-04-23T05:48:12;100594.44;;;9.45;85.58
76060;BME280;64759;52.220;5.170;2023-04-23T05:50:37;100584.09;;;9.55;85.24
76060;BME280;64759;52.220;5.170;2023-04-23T05:53:06;100599.56;;;9.64;85.47
76060;BME280;64759;52.220;5.170;2023-04-23T05:55:31;100577.53;;;9.60;86.14
76060;BME280;64759;52.220;5.170;2023-04-23T05:57:56;100579.63;;;9.84;85.42
76060;BME280;64759;52.220;5.170;2023-04-23T06:00:22;100578.38;;;9.88;85.21
76060;BME280;64759;52.220;5.170;2023-04-23T06:02:48;100583.91;;;10.03;84.86
76060;BME280;64759;52.220;5.170;2023-04-23T06:05:13;100588.13;;;10.04;83.97
76060;BME280;64759;52.220;5.170;2023-04-23T06:07:38;100579.66;;;10.38;83.69
76060;BME280;64759;52.220;5.170;2023-04-23T06:10:05;100569.81;;;10.42;83.71
76060;BME280;64759;52.220;5.170;2023-04-23T06:12:31;100564.44;;;10.53;83.40
76060;BME280;64759;52.220;5.170;2023-04-23T06:14:57;100567.25;;;10.60;82.72
76060;BME280;64759;52.220;5.170;2023-04-23T06:17:22;100557.28;;;10.82;82.58
76060;BME280;64759;52.220;5.170;2023-04-23T06:19:47;100554.22;;;11.04;82.23
76060;BME280;64759;52.220;5.170;2023-04-23T06:22:13;100560.13;;;11.40;82.31
76060;BME280;64759;52.220;5.170;2023-04-23T06:24:38;100555.16;;;11.72;81.08
76060;BME280;64759;52.220;5.170;2023-04-23T06:27:04;100555.25;;;11.97;80.38
76060;BME280;64759;52.220;5.170;2023-04-23T06:29:34;100556.47;;;12.10;78.37
76060;BME280;64759;52.220;5.170;2023-04-23T06:32:02;100555.41;;;12.37;77.63
76060;BME280;64759;52.220;5.170;2023-04-23T06:34:27;100555.47;;;12.69;76.28
76060;BME280;64759;52.220;5.170;2023-04-23T06:36:53;100551.41;;;13.15;75.73
76060;BME280;64759;52.220;5.170;2023-04-23T06:39:18;100562.31;;;13.19;74.89
76060;BME280;64759;52.220;5.170;2023-04-23T06:41:45;100554.78;;;13.56;73.34
76060;BME280;64759;52.220;5.170;2023-04-23T06:44:20;100559.38;;;13.30;72.81
76060;BME280;64759;52.220;5.170;2023-04-23T06:46:50;100554.97;;;13.38;73.77
76060;BME280;64759;52.220;5.170;2023-04-23T06:49:15;100554.16;;;13.46;71.63
76060;BME280;64759;52.220;5.170;2023-04-23T06:51:40;100556.56;;;14.02;71.64
76060;BME280;64759;52.220;5.170;2023-04-23T06:54:06;100544.38;;;14.03;70.93
76060;BME280;64759;52.220;5.170;2023-04-23T06:56:31;100544.94;;;14.13;70.97
76060;BME280;64759;52.220;5.170;2023-04-23T06:58:57;100543.25;;;14.81;70.06
76060;BME280;64759;52.220;5.170;2023-04-23T07:01:22;100540.94;;;14.86;69.55
76060;BME280;64759;52.220;5.170;2023-04-23T07:03:48;100545.22;;;15.17;68.79
76060;BME280;64759;52.220;5.170;2023-04-23T07:06:15;100531.06;;;15.63;67.44
76060;BME280;64759;52.220;5.170;2023-04-23T07:08:42;100537.69;;;15.95;66.83
76060;BME280;64759;52.220;5.170;2023-04-23T07:11:09;100538.41;;;16.03;66.06
76060;BME280;64759;52.220;5.170;2023-04-23T07:13:35;100540.75;;;16.34;63.28
76060;BME280;64759;52.220;5.170;2023-04-23T07:16:00;100545.69;;;16.58;63.28
76060;BME280;64759;52.220;5.170;2023-04-23T07:18:26;100536.34;;;16.70;62.68
76060;BME280;64759;52.220;5.170;2023-04-23T07:20:51;100544.00;;;16.72;61.99
76060;BME280;64759;52.220;5.170;2023-04-23T07:23:17;100542.44;;;16.42;63.35
76060;BME280;64759;52.220;5.170;2023-04-23T07:25:43;100538.69;;;16.08;63.05
76060;BME280;64759;52.220;5.170;2023-04-23T07:28:08;100532.66;;;16.44;63.49
76060;BME280;64759;52.220;5.170;2023-04-23T07:30:34;100537.53;;;17.17;62.54
76060;BME280;64759;52.220;5.170;2023-04-23T07:33:00;100532.22;;;17.38;62.10
76060;BME280;64759;52.220;5.170;2023-04-23T07:35:25;100527.34;;;17.28;61.57
76060;BME280;64759;52.220;5.170;2023-04-23T07:37:53;100528.88;;;17.50;60.35
76060;BME280;64759;52.220;5.170;2023-04-23T07:40:20;100526.69;;;17.20;59.75
76060;BME280;64759;52.220;5.170;2023-04-23T07:42:46;100522.03;;;17.49;58.71
76060;BME280;64759;52.220;5.170;2023-04-23T07:45:12;100519.00;;;17.80;59.70
76060;BME280;64759;52.220;5.170;2023-04-23T07:47:37;100519.13;;;18.19;58.02
76060;BME280;64759;52.220;5.170;2023-04-23T07:50:06;100520.78;;;17.45;57.77
76060;BME280;64759;52.220;5.170;2023-04-23T07:52:32;100518.91;;;18.08;58.45
76060;BME280;64759;52.220;5.170;2023-04-23T07:54:57;100511.09;;;18.41;57.93
76060;BME280;64759;52.220;5.170;2023-04-23T07:57:23;100512.88;;;18.14;57.61
76060;BME280;64759;52.220;5.170;2023-04-23T07:59:48;100525.59;;;18.23;57.02
76060;BME280;64759;52.220;5.170;2023-04-23T08:02:13;100512.34;;;18.45;56.99
76060;BME280;64759;52.220;5.170;2023-04-23T08:04:42;100521.66;;;18.47;55.41
76060;BME280;64759;52.220;5.170;2023-04-23T08:07:08;100526.13;;;18.66;55.59
76060;BME280;64759;52.220;5.170;2023-04-23T08:09:33;100531.38;;;18.99;55.24
76060;BME280;64759;52.220;5.170;2023-04-23T08:11:59;100517.63;;;19.43;53.17
76060;BME280;64759;52.220;5.170;2023-04-23T08:14:24;100520.06;;;19.38;53.91
76060;BME280;64759;52.220;5.170;2023-04-23T08:16:49;100519.25;;;19.11;55.52
76060;BME280;64759;52.220;5.170;2023-04-23T08:19:15;100516.03;;;18.76;55.25
76060;BME280;64759;52.220;5.170;2023-04-23T08:21:41;100513.97;;;17.85;57.02
76060;BME280;64759;52.220;5.170;2023-04-23T08:24:06;100512.31;;;18.25;55.97
76060;BME280;64759;52.220;5.170;2023-04-23T08:26:34;100501.09;;;19.03;55.00
76060;BME280;64759;52.220;5.170;2023-04-23T08:29:02;100490.34;;;19.24;53.11
76060;BME280;64759;52.220;5.170;2023-04-23T08:31:29;100501.09;;;18.90;54.09
76060;BME280;64759;52.220;5.170;2023-04-23T08:33:55;100498.50;;;18.77;54.46
76060;BME280;64759;52.220;5.170;2023-04-23T08:36:20;100502.53;;;18.60;55.70
76060;BME280;64759;52.220;5.170;2023-04-23T08:38:46;100497.44;;;19.17;54.08
76060;BME280;64759;52.220;5.170;2023-04-23T08:41:13;100507.50;;;19.53;54.60
76060;BME280;64759;52.220;5.170;2023-04-23T08:44:20;100501.22;;;19.34;52.80
76060;BME280;64759;52.220;5.170;2023-04-23T08:46:44;100502.53;;;18.60;53.12
76060;BME280;64759;52.220;5.170;2023-04-23T08:49:15;100497.38;;;19.63;52.38
76060;BME280;64759;52.220;5.170;2023-04-23T08:51:47;100503.19;;;19.72;51.59
76060;BME280;64759;52.220;5.170;2023-04-23T08:54:18;100493.34;;;19.54;51.59
76060;BME280;64759;52.220;5.170;2023-04-23T08:56:45;100503.16;;;20.23;50.44
76060;BME280;64759;52.220;5.170;2023-04-23T08:59:11;100493.94;;;20.07;51.78
76060;BME280;64759;52.220;5.170;2023-04-23T09:01:37;100490.78;;;20.61;49.91
76060;BME280;64759;52.220;5.170;2023-04-23T09:04:03;100496.19;;;20.91;49.75
76060;BME280;64759;52.220;5.170;2023-04-23T09:06:29;100490.25;;;20.14;51.19
76060;BME280;64759;52.220;5.170;2023-04-23T09:08:57;100489.31;;;19.51;51.41
76060;BME280;64759;52.220;5.170;2023-04-23T09:11:26;100503.28;;;19.39;52.06
76060;BME280;64759;52.220;5.170;2023-04-23T09:13:52;100494.03;;;19.81;52.38
76060;BME280;64759;52.220;5.170;2023-04-23T09:16:18;100501.84;;;19.49;51.96
76060;BME280;64759;52.220;5.170;2023-04-23T09:18:45;100491.13;;;19.31;52.56
76060;BME280;64759;52.220;5.170;2023-04-23T09:21:11;100490.13;;;19.32;51.00
76060;BME280;64759;52.220;5.170;2023-04-23T09:23:38;100495.66;;;19.82;50.88
76060;BME280;64759;52.220;5.170;2023-04-23T09:26:07;100496.19;;;20.35;51.28
76060;BME280;64759;52.220;5.170;2023-04-23T09:28:36;100486.38;;;19.79;49.06
76060;BME280;64759;52.220;5.170;2023-04-23T09:31:03;100486.16;;;19.81;50.77
76060;BME280;64759;52.220;5.170;2023-04-23T09:33:30;100482.19;;;19.65;50.89
76060;BME280;64759;52.220;5.170;2023-04-23T09:36:07;100494.38;;;19.33;50.86
76060;BME280;64759;52.220;5.170;2023-04-23T09:38:33;100484.28;;;19.30;52.06
76060;BME280;64759;52.220;5.170;2023-04-23T09:41:25;100477.69;;;18.95;51.94
76060;BME280;64759;52.220;5.170;2023-04-23T09:43:56;100475.28;;;18.61;52.83
76060;BME280;64759;52.220;5.170;2023-04-23T09:46:38;100475.50;;;18.59;53.42
76060;BME280;64759;52.220;5.170;2023-04-23T09:49:05;100479.66;;;18.41;53.48
76060;BME280;64759;52.220;5.170;2023-04-23T09:51:37;100473.88;;;18.52;53.37
76060;BME280;64759;52.220;5.170;2023-04-23T09:54:10;100477.28;;;18.98;53.53
76060;BME280;64759;52.220;5.170;2023-04-23T09:56:36;100470.75;;;19.27;51.77
76060;BME280;64759;52.220;5.170;2023-04-23T09:59:01;100471.00;;;19.12;51.10
76060;BME280;64759;52.220;5.170;2023-04-23T10:01:28;100468.81;;;18.83;51.97
76060;BME280;64759;52.220;5.170;2023-04-23T10:03:54;100473.25;;;19.09;52.93
76060;BME280;64759;52.220;5.170;2023-04-23T10:06:29;100466.69;;;19.44;51.75
76060;BME280;64759;52.220;5.170;2023-04-23T10:08:56;100461.94;;;18.95;51.67
76060;BME280;64759;52.220;5.170;2023-04-23T10:11:23;100467.78;;;19.10;51.90
76060;BME280;64759;52.220;5.170;2023-04-23T10:13:49;100457.25;;;19.23;50.99
76060;BME280;64759;52.220;5.170;2023-04-23T10:16:16;100464.69;;;19.26;51.49
76060;BME280;64759;52.220;5.170;2023-04-23T10:18:42;100461.41;;;19.57;50.53
76060;BME280;64759;52.220;5.170;2023-04-23T10:21:09;100467.06;;;19.98;48.72
76060;BME280;64759;52.220;5.170;2023-04-23T10:23:37;100465.97;;;20.19;49.34
76060;BME280;64759;52.220;5.170;2023-04-23T10:26:06;100461.94;;;20.10;49.26
76060;BME280;64759;52.220;5.170;2023-04-23T10:28:34;100460.78;;;20.06;48.57
76060;BME280;64759;52.220;5.170;2023-04-23T10:31:00;100453.06;;;18.83;50.50
76060;BME280;64759;52.220;5.170;2023-04-23T10:33:30;100456.28;;;19.05;50.19
76060;BME280;64759;52.220;5.170;2023-04-23T10:35:56;100459.72;;;18.99;50.47
76060;BME280;64759;52.220;5.170;2023-04-23T10:38:21;100442.53;;;19.09;50.45
76060;BME280;64759;52.220;5.170;2023-04-23T10:40:49;100437.44;;;19.40;50.06
76060;BME280;64759;52.220;5.170;2023-04-23T10:43:17;100434.44;;;19.17;51.27
76060;BME280;64759;52.220;5.170;2023-04-23T10:45:43;100433.88;;;19.09;52.16
76060;BME280;64759;52.220;5.170;2023-04-23T10:48:09;100431.41;;;19.20;51.43
76060;BME280;64759;52.220;5.170;2023-04-23T10:50:35;100424.59;;;19.00;49.66
76060;BME280;64759;52.220;5.170;2023-04-23T10:53:01;100417.50;;;19.07;50.48
76060;BME280;64759;52.220;5.170;2023-04-23T10:55:29;100418.31;;;19.14;49.53
76060;BME280;64759;52.220;5.170;2023-04-23T10:57:55;100416.34;;;18.96;49.92
76060;BME280;64759;52.220;5.170;2023-04-23T11:00:22;100413.94;;;18.75;49.89
76060;BME280;64759;52.220;5.170;2023-04-23T11:02:49;100402.19;;;18.97;49.04
76060;BME280;64759;52.220;5.170;2023-04-23T11:05:15;100408.31;;;18.65;50.32
76060;BME280;64759;52.220;5.170;2023-04-23T11:07:41;100413.94;;;18.68;50.35
76060;BME280;64759;52.220;5.170;2023-04-23T11:10:14;100407.91;;;18.68;49.88
76060;BME280;64759;52.220;5.170;2023-04-23T11:12:39;100402.66;;;18.42;50.14
76060;BME280;64759;52.220;5.170;2023-04-23T11:15:15;100390.13;;;18.24;51.09
76060;BME280;64759;52.220;5.170;2023-04-23T11:20:12;100392.56;;;18.39;51.53
76060;BME280;64759;52.220;5.170;2023-04-23T11:22:41;100392.75;;;18.17;51.37
76060;BME280;64759;52.220;5.170;2023-04-23T11:25:14;100387.50;;;18.24;51.67
76060;BME280;64759;52.220;5.170;2023-04-23T11:27:42;100388.53;;;18.10;51.82
76060;BME280;64759;52.220;5.170;2023-04-23T11:30:12;100375.81;;;18.13;51.96
76060;BME280;64759;52.220;5.170;2023-04-23T11:32:41;100382.47;;;18.09;51.72
76060;BME280;64759;52.220;5.170;2023-04-23T11:35:08;100370.38;;;18.08;50.71
76060;BME280;64759;52.220;5.170;2023-04-23T11:37:42;100361.50;;;18.09;50.82
76060;BME280;64759;52.220;5.170;2023-04-23T11:40:10;100362.53;;;18.15;50.64
76060;BME280;64759;52.220;5.170;2023-04-23T11:42:41;100350.84;;;18.37;49.55
76060;BME280;64759;52.220;5.170;2023-04-23T11:45:28;100337.06;;;18.81;49.52
76060;BME280;64759;52.220;5.170;2023-04-23T11:47:58;100340.47;;;18.88;47.72
76060;BME280;64759;52.220;5.170;2023-04-23T11:50:27;100333.38;;;19.02;48.40
76060;BME280;64759;52.220;5.170;2023-04-23T11:53:03;100328.22;;;18.82;47.46
76060;BME280;64759;52.220;5.170;2023-04-23T11:55:29;100330.31;;;19.11;47.68
76060;BME280;64759;52.220;5.170;2023-04-23T11:57:57;100327.41;;;18.68;47.46
76060;BME280;64759;52.220;5.170;2023-04-23T12:00:25;100326.84;;;18.60;48.31
76060;BME280;64759;52.220;5.170;2023-04-23T12:02:59;100330.28;;;18.34;47.84
76060;BME280;64759;52.220;5.170;2023-04-23T12:05:39;100329.06;;;18.56;47.40
76060;BME280;64759;52.220;5.170;2023-04-23T12:08:14;100323.22;;;18.48;46.93
76060;BME280;64759;52.220;5.170;2023-04-23T12:13:22;100314.56;;;18.47;47.24
76060;BME280;64759;52.220;5.170;2023-04-23T12:15:56;100311.31;;;18.58;47.53
76060;BME280;64759;52.220;5.170;2023-04-23T12:18:27;100311.66;;;18.81;47.13
76060;BME280;64759;52.220;5.170;2023-04-23T12:20:52;100309.84;;;18.82;47.73
76060;BME280;64759;52.220;5.170;2023-04-23T12:23:18;100303.97;;;18.80;48.56
76060;BME280;64759;52.220;5.170;2023-04-23T12:25:43;100307.25;;;18.69;47.94
76060;BME280;64759;52.220;5.170;2023-04-23T12:28:09;100305.06;;;18.53;47.73
76060;BME280;64759;52.220;5.170;2023-04-23T12:30:42;100297.22;;;18.40;48.27
76060;BME280;64759;52.220;5.170;2023-04-23T12:33:10;100294.97;;;18.56;48.50
76060;BME280;64759;52.220;5.170;2023-04-23T12:35:42;100288.25;;;18.86;47.70
76060;BME280;64759;52.220;5.170;2023-04-23T12:40:48;100277.94;;;18.85;47.76
76060;BME280;64759;52.220;5.170;2023-04-23T12:43:13;100273.53;;;18.72;46.97
76060;BME280;64759;52.220;5.170;2023-04-23T12:45:39;100271.53;;;18.74;47.87
76060;BME280;64759;52.220;5.170;2023-04-23T12:48:04;100266.53;;;18.53;48.09
76060;BME280;64759;52.220;5.170;2023-04-23T12:50:30;100269.34;;;18.65;47.82
76060;BME280;64759;52.220;5.170;2023-04-23T12:52:55;100261.69;;;18.63;48.78
76060;BME280;64759;52.220;5.170;2023-04-23T12:55:20;100254.34;;;18.85;48.55
76060;BME280;64759;52.220;5.170;2023-04-23T12:57:46;100259.50;;;18.54;48.86
76060;BME280;64759;52.220;5.170;2023-04-23T13:00:12;100251.00;;;18.58;49.46
76060;BME280;64759;52.220;5.170;2023-04-23T13:02:37;100250.38;;;18.69;48.74